Airfield :
LOGIN :

Register | Disclaimer

   EN    FR    IT 

 










Legend :    VFR   Marginal VFR   IFR   Intensive IFR   Very Intensive IFR
Visi :
Ceiling :
>= 8 km
>= 3000ft
5 to 8 km
1000 to 3000 ft
1500m to 5 km
500 to 1000 ft
800 to 1500m
200 to 500 ft
< 800m
< 200 ft
Symbols :   Thunderstorms  Fog  Heavy snow  Heavy precipitations  Wind > 20 kt
SIGMETs :     Misc.  Thunderstorms  Icing  Turbulence  Mountain Waves  Volcanic Ashes







- Airport Elevation : 120 ft
- IATA code : MME
- Download approach charts


EGNV - Durham Tees valley

CURRENT METAR :
  • 181820Z 20006KT CAVOK 01/M00 Q1029

EXPIRED METARs :
  • 181750Z 22006KT CAVOK M00/M02 Q1029
  • 181720Z 22007KT CAVOK 00/M01 Q1029
  • 181650Z 21005KT CAVOK 01/M00 Q1029
  • 181620Z 23005KT CAVOK 03/01 Q1029
  • 181550Z 24005KT CAVOK 02/00 Q1029

TAF TAF EGNV
Valid from the 18 at 18:00 until the 18 at 22:00 UTC


181658Z 1818/1822 19005KT 9999 FEW035
BECMG 1818/1822 6000
TEMPO 1818/1822 3000 BR
ATIS : +44 9012 018 111
No reported NOTAMs for that airfield.



MET'MAP, your aeronautical weather chart ! - Copyright ORBIFLY December 2007 - Disclaimer

ORBIFLY MET'MAP TEAM :

Programming & Development : Alexandra Zaïnal
Concept & Development : Baudouin d'Aumeries
Co-Development & Prog : Marc-Olivier Méhu
Technical & hardware support : Manuel Goepfert

Contact : metmap@orbifly.com




SOURCES & CREDITS :

   NOAA